sensor_id;sensor_type;location;lat;lon;timestamp;temperature;humidity
22781;DHT22;11557;50.884;4.322;2023-11-21T00:00:13;12.30;99.90
22781;DHT22;11557;50.884;4.322;2023-11-21T00:02:40;12.10;99.90
22781;DHT22;11557;50.884;4.322;2023-11-21T00:05:10;12.20;99.90
22781;DHT22;11557;50.884;4.322;2023-11-21T00:07:37;12.00;99.90
22781;DHT22;11557;50.884;4.322;2023-11-21T00:10:03;12.10;99.90
22781;DHT22;11557;50.884;4.322;2023-11-21T00:12:30;12.00;99.90
22781;DHT22;11557;50.884;4.322;2023-11-21T00:14:57;11.90;99.90
22781;DHT22;11557;50.884;4.322;2023-11-21T00:17:23;11.90;99.90
22781;DHT22;11557;50.884;4.322;2023-11-21T00:19:49;11.90;99.90
22781;DHT22;11557;50.884;4.322;2023-11-21T00:22:17;11.90;99.90
22781;DHT22;11557;50.884;4.322;2023-11-21T00:24:43;12.50;99.90
22781;DHT22;11557;50.884;4.322;2023-11-21T00:27:09;11.90;99.90
22781;DHT22;11557;50.884;4.322;2023-11-21T00:29:35;11.90;99.90
22781;DHT22;11557;50.884;4.322;2023-11-21T00:32:00;11.90;99.90
22781;DHT22;11557;50.884;4.322;2023-11-21T00:34:26;11.90;99.90
22781;DHT22;11557;50.884;4.322;2023-11-21T00:36:52;12.00;99.90
22781;DHT22;11557;50.884;4.322;2023-11-21T00:39:18;12.00;99.90
22781;DHT22;11557;50.884;4.322;2023-11-21T00:41:43;12.00;99.90
22781;DHT22;11557;50.884;4.322;2023-11-21T00:44:10;11.90;99.90
22781;DHT22;11557;50.884;4.322;2023-11-21T00:46:36;11.80;99.90
22781;DHT22;11557;50.884;4.322;2023-11-21T00:49:02;11.70;99.90
22781;DHT22;11557;50.884;4.322;2023-11-21T00:51:29;11.60;99.90
22781;DHT22;11557;50.884;4.322;2023-11-21T00:53:55;11.50;99.90
22781;DHT22;11557;50.884;4.322;2023-11-21T00:56:21;11.60;99.90
22781;DHT22;11557;50.884;4.322;2023-11-21T00:58:47;11.50;99.90
22781;DHT22;11557;50.884;4.322;2023-11-21T01:01:15;11.60;99.90
22781;DHT22;11557;50.884;4.322;2023-11-21T01:03:41;11.40;99.90
22781;DHT22;11557;50.884;4.322;2023-11-21T01:06:07;11.40;99.90
22781;DHT22;11557;50.884;4.322;2023-11-21T01:08:34;11.30;99.90
22781;DHT22;11557;50.884;4.322;2023-11-21T01:11:01;11.50;99.90
22781;DHT22;11557;50.884;4.322;2023-11-21T01:13:27;11.50;99.90
22781;DHT22;11557;50.884;4.322;2023-11-21T01:15:53;11.60;99.90
22781;DHT22;11557;50.884;4.322;2023-11-21T01:18:19;11.60;99.90
22781;DHT22;11557;50.884;4.322;2023-11-21T01:20:45;11.70;99.90
22781;DHT22;11557;50.884;4.322;2023-11-21T01:23:13;11.70;99.90
22781;DHT22;11557;50.884;4.322;2023-11-21T01:25:38;11.80;99.90
22781;DHT22;11557;50.884;4.322;2023-11-21T01:28:04;11.80;99.90
22781;DHT22;11557;50.884;4.322;2023-11-21T01:30:29;11.60;99.90
22781;DHT22;11557;50.884;4.322;2023-11-21T01:32:55;11.80;99.90
22781;DHT22;11557;50.884;4.322;2023-11-21T01:35:22;11.80;99.90
22781;DHT22;11557;50.884;4.322;2023-11-21T01:37:47;11.80;99.90
22781;DHT22;11557;50.884;4.322;2023-11-21T01:40:14;11.90;99.90
22781;DHT22;11557;50.884;4.322;2023-11-21T01:42:40;11.90;99.90
22781;DHT22;11557;50.884;4.322;2023-11-21T01:45:07;11.70;99.90
22781;DHT22;11557;50.884;4.322;2023-11-21T01:47:33;11.80;99.90
22781;DHT22;11557;50.884;4.322;2023-11-21T01:50:02;11.70;99.90
22781;DHT22;11557;50.884;4.322;2023-11-21T01:52:30;11.70;99.90
22781;DHT22;11557;50.884;4.322;2023-11-21T01:54:57;11.70;99.90
22781;DHT22;11557;50.884;4.322;2023-11-21T01:57:23;11.80;99.90
22781;DHT22;11557;50.884;4.322;2023-11-21T01:59:49;11.80;99.90
22781;DHT22;11557;50.884;4.322;2023-11-21T02:02:15;11.90;99.90
22781;DHT22;11557;50.884;4.322;2023-11-21T02:04:41;11.80;99.90
22781;DHT22;11557;50.884;4.322;2023-11-21T02:07:07;11.80;99.90
22781;DHT22;11557;50.884;4.322;2023-11-21T02:09:33;11.90;99.90
22781;DHT22;11557;50.884;4.322;2023-11-21T02:12:00;11.70;99.90
22781;DHT22;11557;50.884;4.322;2023-11-21T02:14:26;11.70;99.90
22781;DHT22;11557;50.884;4.322;2023-11-21T02:16:53;11.50;99.90
22781;DHT22;11557;50.884;4.322;2023-11-21T02:19:20;11.20;99.90
22781;DHT22;11557;50.884;4.322;2023-11-21T02:21:52;11.20;99.90
22781;DHT22;11557;50.884;4.322;2023-11-21T02:24:22;11.20;99.90
22781;DHT22;11557;50.884;4.322;2023-11-21T02:26:48;11.10;99.90
22781;DHT22;11557;50.884;4.322;2023-11-21T02:29:17;11.20;99.90
22781;DHT22;11557;50.884;4.322;2023-11-21T02:31:44;11.40;99.90
22781;DHT22;11557;50.884;4.322;2023-11-21T02:34:17;11.20;99.90
22781;DHT22;11557;50.884;4.322;2023-11-21T02:36:44;11.30;99.90
22781;DHT22;11557;50.884;4.322;2023-11-21T02:39:12;11.30;99.90
22781;DHT22;11557;50.884;4.322;2023-11-21T02:41:39;11.20;99.90
22781;DHT22;11557;50.884;4.322;2023-11-21T02:44:05;12.20;99.90
22781;DHT22;11557;50.884;4.322;2023-11-21T02:46:32;11.20;99.90
22781;DHT22;11557;50.884;4.322;2023-11-21T02:49:00;11.60;99.90
22781;DHT22;11557;50.884;4.322;2023-11-21T02:51:26;11.00;99.90
22781;DHT22;11557;50.884;4.322;2023-11-21T02:53:52;11.20;99.90
22781;DHT22;11557;50.884;4.322;2023-11-21T02:56:17;11.60;99.90
22781;DHT22;11557;50.884;4.322;2023-11-21T02:58:43;11.30;99.90
22781;DHT22;11557;50.884;4.322;2023-11-21T03:01:10;11.30;99.90
22781;DHT22;11557;50.884;4.322;2023-11-21T03:03:39;11.00;99.90
22781;DHT22;11557;50.884;4.322;2023-11-21T03:06:08;11.10;99.90
22781;DHT22;11557;50.884;4.322;2023-11-21T03:08:34;11.20;99.90
22781;DHT22;11557;50.884;4.322;2023-11-21T03:11:00;11.10;99.90
22781;DHT22;11557;50.884;4.322;2023-11-21T03:13:26;11.30;99.90
22781;DHT22;11557;50.884;4.322;2023-11-21T03:15:51;11.20;99.90
22781;DHT22;11557;50.884;4.322;2023-11-21T03:18:17;11.10;99.90
22781;DHT22;11557;50.884;4.322;2023-11-21T03:20:46;11.60;99.90
22781;DHT22;11557;50.884;4.322;2023-11-21T03:23:14;11.10;99.90
22781;DHT22;11557;50.884;4.322;2023-11-21T03:25:40;11.30;99.90
22781;DHT22;11557;50.884;4.322;2023-11-21T03:28:06;11.30;99.90
22781;DHT22;11557;50.884;4.322;2023-11-21T03:30:33;11.50;99.90
22781;DHT22;11557;50.884;4.322;2023-11-21T03:32:59;11.60;99.90
22781;DHT22;11557;50.884;4.322;2023-11-21T03:35:25;11.70;99.90
22781;DHT22;11557;50.884;4.322;2023-11-21T03:37:51;11.70;99.90
22781;DHT22;11557;50.884;4.322;2023-11-21T03:40:17;11.80;99.90
22781;DHT22;11557;50.884;4.322;2023-11-21T03:42:43;11.90;99.90
22781;DHT22;11557;50.884;4.322;2023-11-21T03:45:09;11.90;99.90
22781;DHT22;11557;50.884;4.322;2023-11-21T03:47:34;11.90;99.90
22781;DHT22;11557;50.884;4.322;2023-11-21T03:50:00;11.90;99.90
22781;DHT22;11557;50.884;4.322;2023-11-21T03:52:26;12.00;99.90
22781;DHT22;11557;50.884;4.322;2023-11-21T03:54:53;12.00;99.90
22781;DHT22;11557;50.884;4.322;2023-11-21T03:57:20;12.00;99.90
22781;DHT22;11557;50.884;4.322;2023-11-21T03:59:46;12.00;99.90
22781;DHT22;11557;50.884;4.322;2023-11-21T04:02:12;11.90;99.90
22781;DHT22;11557;50.884;4.322;2023-11-21T04:04:38;12.00;99.90
22781;DHT22;11557;50.884;4.322;2023-11-21T04:07:04;12.10;99.90
22781;DHT22;11557;50.884;4.322;2023-11-21T04:09:30;12.10;99.90
22781;DHT22;11557;50.884;4.322;2023-11-21T04:11:55;12.20;99.90
22781;DHT22;11557;50.884;4.322;2023-11-21T04:14:21;12.20;99.90
22781;DHT22;11557;50.884;4.322;2023-11-21T04:16:47;12.20;99.90
22781;DHT22;11557;50.884;4.322;2023-11-21T04:19:14;12.30;99.90
22781;DHT22;11557;50.884;4.322;2023-11-21T04:21:41;12.20;99.90
22781;DHT22;11557;50.884;4.322;2023-11-21T04:24:07;12.20;99.90
22781;DHT22;11557;50.884;4.322;2023-11-21T04:26:33;12.20;99.90
22781;DHT22;11557;50.884;4.322;2023-11-21T04:28:58;12.20;99.90
22781;DHT22;11557;50.884;4.322;2023-11-21T04:31:24;12.30;99.90
22781;DHT22;11557;50.884;4.322;2023-11-21T04:33:50;12.10;99.90
22781;DHT22;11557;50.884;4.322;2023-11-21T04:36:15;12.30;99.90
22781;DHT22;11557;50.884;4.322;2023-11-21T04:38:41;12.20;99.90
22781;DHT22;11557;50.884;4.322;2023-11-21T04:41:07;12.10;99.90
22781;DHT22;11557;50.884;4.322;2023-11-21T04:43:33;12.10;99.90
22781;DHT22;11557;50.884;4.322;2023-11-21T04:45:59;12.10;99.90
22781;DHT22;11557;50.884;4.322;2023-11-21T04:48:25;12.10;99.90
22781;DHT22;11557;50.884;4.322;2023-11-21T04:50:50;12.20;99.90
22781;DHT22;11557;50.884;4.322;2023-11-21T04:53:17;12.20;99.90
22781;DHT22;11557;50.884;4.322;2023-11-21T04:55:43;12.20;99.90
22781;DHT22;11557;50.884;4.322;2023-11-21T04:58:09;12.20;99.90
22781;DHT22;11557;50.884;4.322;2023-11-21T05:00:35;12.20;99.90
22781;DHT22;11557;50.884;4.322;2023-11-21T05:03:02;12.30;99.90
22781;DHT22;11557;50.884;4.322;2023-11-21T05:05:29;12.10;99.90
22781;DHT22;11557;50.884;4.322;2023-11-21T05:07:57;12.10;99.90
22781;DHT22;11557;50.884;4.322;2023-11-21T05:10:23;12.20;99.90
22781;DHT22;11557;50.884;4.322;2023-11-21T05:12:49;12.20;99.90
22781;DHT22;11557;50.884;4.322;2023-11-21T05:15:16;12.30;99.90
22781;DHT22;11557;50.884;4.322;2023-11-21T05:17:43;12.10;99.90
22781;DHT22;11557;50.884;4.322;2023-11-21T05:20:10;12.30;99.90
22781;DHT22;11557;50.884;4.322;2023-11-21T05:22:37;12.10;99.90
22781;DHT22;11557;50.884;4.322;2023-11-21T05:25:03;12.10;99.90
22781;DHT22;11557;50.884;4.322;2023-11-21T05:27:29;12.10;99.90
22781;DHT22;11557;50.884;4.322;2023-11-21T05:29:56;12.00;99.90
22781;DHT22;11557;50.884;4.322;2023-11-21T05:32:23;12.30;99.90
22781;DHT22;11557;50.884;4.322;2023-11-21T05:34:49;12.00;99.90
22781;DHT22;11557;50.884;4.322;2023-11-21T05:37:14;11.90;99.90
22781;DHT22;11557;50.884;4.322;2023-11-21T05:39:40;11.90;99.90
22781;DHT22;11557;50.884;4.322;2023-11-21T05:42:06;12.00;99.90
22781;DHT22;11557;50.884;4.322;2023-11-21T05:44:31;11.90;99.90
22781;DHT22;11557;50.884;4.322;2023-11-21T05:46:57;11.90;99.90
22781;DHT22;11557;50.884;4.322;2023-11-21T05:49:24;11.90;99.90
22781;DHT22;11557;50.884;4.322;2023-11-21T05:51:54;11.90;99.90
22781;DHT22;11557;50.884;4.322;2023-11-21T05:54:19;11.90;99.90
22781;DHT22;11557;50.884;4.322;2023-11-21T05:56:45;12.00;99.90
22781;DHT22;11557;50.884;4.322;2023-11-21T05:59:12;12.00;99.90
22781;DHT22;11557;50.884;4.322;2023-11-21T06:01:38;12.00;99.90
22781;DHT22;11557;50.884;4.322;2023-11-21T06:04:05;12.00;99.90
22781;DHT22;11557;50.884;4.322;2023-11-21T06:06:30;12.00;99.90
22781;DHT22;11557;50.884;4.322;2023-11-21T06:08:57;12.10;99.90
22781;DHT22;11557;50.884;4.322;2023-11-21T06:11:22;12.20;99.90
22781;DHT22;11557;50.884;4.322;2023-11-21T06:13:48;12.20;99.90
22781;DHT22;11557;50.884;4.322;2023-11-21T06:16:15;11.90;99.90
22781;DHT22;11557;50.884;4.322;2023-11-21T06:18:42;12.00;99.90
22781;DHT22;11557;50.884;4.322;2023-11-21T06:21:12;11.90;99.90
22781;DHT22;11557;50.884;4.322;2023-11-21T06:23:38;11.80;99.90
22781;DHT22;11557;50.884;4.322;2023-11-21T06:26:04;11.90;99.90
22781;DHT22;11557;50.884;4.322;2023-11-21T06:28:30;12.00;99.90
22781;DHT22;11557;50.884;4.322;2023-11-21T06:30:56;12.00;99.90
22781;DHT22;11557;50.884;4.322;2023-11-21T06:33:23;11.90;99.90
22781;DHT22;11557;50.884;4.322;2023-11-21T06:35:49;12.00;99.90
22781;DHT22;11557;50.884;4.322;2023-11-21T06:38:15;12.00;99.90
22781;DHT22;11557;50.884;4.322;2023-11-21T06:40:40;12.00;99.90
22781;DHT22;11557;50.884;4.322;2023-11-21T06:43:06;11.90;99.90
22781;DHT22;11557;50.884;4.322;2023-11-21T06:45:33;11.90;99.90
22781;DHT22;11557;50.884;4.322;2023-11-21T06:48:00;11.90;99.90
22781;DHT22;11557;50.884;4.322;2023-11-21T06:50:25;12.00;99.90
22781;DHT22;11557;50.884;4.322;2023-11-21T06:52:51;12.10;99.90
22781;DHT22;11557;50.884;4.322;2023-11-21T06:55:16;12.10;99.90
22781;DHT22;11557;50.884;4.322;2023-11-21T06:57:42;12.10;99.90
22781;DHT22;11557;50.884;4.322;2023-11-21T07:00:09;12.30;99.90
22781;DHT22;11557;50.884;4.322;2023-11-21T07:02:34;12.00;99.90
22781;DHT22;11557;50.884;4.322;2023-11-21T07:05:00;12.10;99.90
22781;DHT22;11557;50.884;4.322;2023-11-21T07:07:27;12.10;99.90
22781;DHT22;11557;50.884;4.322;2023-11-21T07:09:53;12.00;99.90
22781;DHT22;11557;50.884;4.322;2023-11-21T07:12:19;12.10;99.90
22781;DHT22;11557;50.884;4.322;2023-11-21T07:14:44;12.00;99.90
22781;DHT22;11557;50.884;4.322;2023-11-21T07:17:11;11.90;99.90
22781;DHT22;11557;50.884;4.322;2023-11-21T07:19:39;12.00;99.90
22781;DHT22;11557;50.884;4.322;2023-11-21T07:22:06;12.00;99.90
22781;DHT22;11557;50.884;4.322;2023-11-21T07:24:32;12.00;99.90
22781;DHT22;11557;50.884;4.322;2023-11-21T07:26:58;12.00;99.90
22781;DHT22;11557;50.884;4.322;2023-11-21T07:29:24;11.90;99.90
22781;DHT22;11557;50.884;4.322;2023-11-21T07:31:55;11.90;99.90
22781;DHT22;11557;50.884;4.322;2023-11-21T07:34:21;12.00;99.90
22781;DHT22;11557;50.884;4.322;2023-11-21T07:36:47;12.00;99.90
22781;DHT22;11557;50.884;4.322;2023-11-21T07:39:13;12.00;99.90
22781;DHT22;11557;50.884;4.322;2023-11-21T07:41:41;12.00;99.90
22781;DHT22;11557;50.884;4.322;2023-11-21T07:44:10;12.00;99.90
22781;DHT22;11557;50.884;4.322;2023-11-21T07:46:36;12.00;99.90
22781;DHT22;11557;50.884;4.322;2023-11-21T07:49:01;12.10;99.90
22781;DHT22;11557;50.884;4.322;2023-11-21T07:51:27;12.00;99.90
22781;DHT22;11557;50.884;4.322;2023-11-21T07:53:52;12.20;99.90
22781;DHT22;11557;50.884;4.322;2023-11-21T07:56:18;12.10;99.90
22781;DHT22;11557;50.884;4.322;2023-11-21T07:58:44;12.10;99.90
22781;DHT22;11557;50.884;4.322;2023-11-21T08:01:10;12.00;99.90
22781;DHT22;11557;50.884;4.322;2023-11-21T08:03:35;12.00;99.90
22781;DHT22;11557;50.884;4.322;2023-11-21T08:06:01;12.00;99.90
22781;DHT22;11557;50.884;4.322;2023-11-21T08:08:29;11.90;99.90
22781;DHT22;11557;50.884;4.322;2023-11-21T08:10:54;11.90;99.90
22781;DHT22;11557;50.884;4.322;2023-11-21T08:13:27;12.00;99.90
22781;DHT22;11557;50.884;4.322;2023-11-21T08:15:56;12.10;99.90
22781;DHT22;11557;50.884;4.322;2023-11-21T08:18:27;12.00;99.90
22781;DHT22;11557;50.884;4.322;2023-11-21T08:20:52;12.10;99.90
22781;DHT22;11557;50.884;4.322;2023-11-21T08:23:20;12.10;99.90
22781;DHT22;11557;50.884;4.322;2023-11-21T08:25:46;12.10;99.90
22781;DHT22;11557;50.884;4.322;2023-11-21T08:28:12;12.10;99.90
22781;DHT22;11557;50.884;4.322;2023-11-21T08:30:39;12.10;99.90
22781;DHT22;11557;50.884;4.322;2023-11-21T08:33:07;12.20;99.90
22781;DHT22;11557;50.884;4.322;2023-11-21T08:35:34;12.30;99.90
22781;DHT22;11557;50.884;4.322;2023-11-21T08:38:00;12.20;99.90
22781;DHT22;11557;50.884;4.322;2023-11-21T08:40:25;12.30;99.90
22781;DHT22;11557;50.884;4.322;2023-11-21T08:42:51;12.30;99.90
22781;DHT22;11557;50.884;4.322;2023-11-21T08:45:18;12.40;99.90
22781;DHT22;11557;50.884;4.322;2023-11-21T08:47:45;12.50;99.90
22781;DHT22;11557;50.884;4.322;2023-11-21T08:50:11;12.50;99.90
22781;DHT22;11557;50.884;4.322;2023-11-21T08:52:38;12.50;99.90
22781;DHT22;11557;50.884;4.322;2023-11-21T08:55:05;12.50;99.90
22781;DHT22;11557;50.884;4.322;2023-11-21T08:57:36;12.50;99.90
22781;DHT22;11557;50.884;4.322;2023-11-21T09:00:03;12.60;99.90
22781;DHT22;11557;50.884;4.322;2023-11-21T09:02:33;12.50;99.90
22781;DHT22;11557;50.884;4.322;2023-11-21T09:05:00;12.40;99.90
22781;DHT22;11557;50.884;4.322;2023-11-21T09:07:28;12.60;99.90
22781;DHT22;11557;50.884;4.322;2023-11-21T09:09:54;12.50;99.90
22781;DHT22;11557;50.884;4.322;2023-11-21T09:12:20;12.50;99.90
22781;DHT22;11557;50.884;4.322;2023-11-21T09:14:46;12.40;99.90
22781;DHT22;11557;50.884;4.322;2023-11-21T09:17:11;12.30;99.90
22781;DHT22;11557;50.884;4.322;2023-11-21T09:19:38;12.10;99.90
22781;DHT22;11557;50.884;4.322;2023-11-21T09:22:04;12.30;99.90
22781;DHT22;11557;50.884;4.322;2023-11-21T09:24:31;12.50;99.90
22781;DHT22;11557;50.884;4.322;2023-11-21T09:26:56;12.40;99.90
22781;DHT22;11557;50.884;4.322;2023-11-21T09:29:22;12.40;99.90
22781;DHT22;11557;50.884;4.322;2023-11-21T09:31:48;12.50;99.90
22781;DHT22;11557;50.884;4.322;2023-11-21T09:34:15;12.50;99.90
22781;DHT22;11557;50.884;4.322;2023-11-21T09:36:40;12.60;99.90
22781;DHT22;11557;50.884;4.322;2023-11-21T09:39:06;12.70;99.90
22781;DHT22;11557;50.884;4.322;2023-11-21T09:41:43;12.80;99.90
22781;DHT22;11557;50.884;4.322;2023-11-21T09:44:13;12.80;99.90
22781;DHT22;11557;50.884;4.322;2023-11-21T09:46:41;12.80;99.90
22781;DHT22;11557;50.884;4.322;2023-11-21T09:49:09;12.80;99.90
22781;DHT22;11557;50.884;4.322;2023-11-21T09:51:39;12.60;99.90
22781;DHT22;11557;50.884;4.322;2023-11-21T09:54:08;12.50;99.90
22781;DHT22;11557;50.884;4.322;2023-11-21T09:56:36;12.40;99.90
22781;DHT22;11557;50.884;4.322;2023-11-21T09:59:03;12.30;99.90
22781;DHT22;11557;50.884;4.322;2023-11-21T10:01:36;12.20;99.90
22781;DHT22;11557;50.884;4.322;2023-11-21T10:04:03;12.10;99.90
22781;DHT22;11557;50.884;4.322;2023-11-21T10:06:29;12.10;99.90
22781;DHT22;11557;50.884;4.322;2023-11-21T10:08:56;12.10;99.90
22781;DHT22;11557;50.884;4.322;2023-11-21T10:11:27;12.20;99.90
22781;DHT22;11557;50.884;4.322;2023-11-21T10:13:55;12.20;99.90
22781;DHT22;11557;50.884;4.322;2023-11-21T10:16:26;12.20;99.90
22781;DHT22;11557;50.884;4.322;2023-11-21T10:18:53;12.40;99.90
22781;DHT22;11557;50.884;4.322;2023-11-21T10:21:22;12.50;99.90
22781;DHT22;11557;50.884;4.322;2023-11-21T10:23:49;12.40;99.90
22781;DHT22;11557;50.884;4.322;2023-11-21T10:26:15;12.40;99.90
22781;DHT22;11557;50.884;4.322;2023-11-21T10:29:02;12.60;99.90
22781;DHT22;11557;50.884;4.322;2023-11-21T10:31:31;12.80;99.90
22781;DHT22;11557;50.884;4.322;2023-11-21T10:34:14;12.90;99.90
22781;DHT22;11557;50.884;4.322;2023-11-21T10:36:40;12.90;99.90
22781;DHT22;11557;50.884;4.322;2023-11-21T10:39:05;13.10;99.90
22781;DHT22;11557;50.884;4.322;2023-11-21T10:41:32;13.00;99.90
22781;DHT22;11557;50.884;4.322;2023-11-21T10:43:58;13.20;99.90
22781;DHT22;11557;50.884;4.322;2023-11-21T10:46:24;13.20;99.90
22781;DHT22;11557;50.884;4.322;2023-11-21T10:48:54;13.10;99.90
22781;DHT22;11557;50.884;4.322;2023-11-21T10:51:21;13.20;99.90
22781;DHT22;11557;50.884;4.322;2023-11-21T10:53:47;13.20;99.90
22781;DHT22;11557;50.884;4.322;2023-11-21T10:56:14;13.40;99.90
22781;DHT22;11557;50.884;4.322;2023-11-21T10:58:45;13.10;99.90
22781;DHT22;11557;50.884;4.322;2023-11-21T11:01:12;13.00;99.90
22781;DHT22;11557;50.884;4.322;2023-11-21T11:03:40;13.30;99.90
22781;DHT22;11557;50.884;4.322;2023-11-21T11:06:07;13.30;99.90
22781;DHT22;11557;50.884;4.322;2023-11-21T11:08:37;13.50;99.90
22781;DHT22;11557;50.884;4.322;2023-11-21T11:11:05;13.40;99.90
22781;DHT22;11557;50.884;4.322;2023-11-21T11:13:31;13.50;99.90
22781;DHT22;11557;50.884;4.322;2023-11-21T11:16:00;13.30;99.90
22781;DHT22;11557;50.884;4.322;2023-11-21T11:18:33;13.30;99.90
22781;DHT22;11557;50.884;4.322;2023-11-21T11:21:11;13.20;99.90
22781;DHT22;11557;50.884;4.322;2023-11-21T11:26:57;13.00;99.90
22781;DHT22;11557;50.884;4.322;2023-11-21T11:29:41;13.20;99.90
22781;DHT22;11557;50.884;4.322;2023-11-21T11:35:06;13.10;99.90
22781;DHT22;11557;50.884;4.322;2023-11-21T11:37:33;13.20;99.90
22781;DHT22;11557;50.884;4.322;2023-11-21T11:39:59;13.20;99.90
22781;DHT22;11557;50.884;4.322;2023-11-21T11:42:26;13.00;99.90
22781;DHT22;11557;50.884;4.322;2023-11-21T11:44:52;13.10;99.90
22781;DHT22;11557;50.884;4.322;2023-11-21T11:47:29;13.10;99.90
22781;DHT22;11557;50.884;4.322;2023-11-21T11:52:40;13.10;99.90
22781;DHT22;11557;50.884;4.322;2023-11-21T11:55:08;13.10;99.90
22781;DHT22;11557;50.884;4.322;2023-11-21T11:57:35;13.00;99.90
22781;DHT22;11557;50.884;4.322;2023-11-21T12:00:14;12.90;99.90
22781;DHT22;11557;50.884;4.322;2023-11-21T12:02:48;12.80;99.90
22781;DHT22;11557;50.884;4.322;2023-11-21T12:05:19;12.90;99.90
22781;DHT22;11557;50.884;4.322;2023-11-21T12:10:18;12.70;99.90
22781;DHT22;11557;50.884;4.322;2023-11-21T12:12:45;12.70;99.90
22781;DHT22;11557;50.884;4.322;2023-11-21T12:15:12;12.70;99.90
22781;DHT22;11557;50.884;4.322;2023-11-21T12:17:39;12.70;99.90
22781;DHT22;11557;50.884;4.322;2023-11-21T12:20:05;12.60;99.90
22781;DHT22;11557;50.884;4.322;2023-11-21T12:22:41;12.80;99.90
22781;DHT22;11557;50.884;4.322;2023-11-21T12:25:07;13.00;99.90
22781;DHT22;11557;50.884;4.322;2023-11-21T12:27:32;13.00;99.90
22781;DHT22;11557;50.884;4.322;2023-11-21T12:29:58;12.80;99.90
22781;DHT22;11557;50.884;4.322;2023-11-21T12:32:24;12.50;99.90
22781;DHT22;11557;50.884;4.322;2023-11-21T12:34:51;12.50;99.90
22781;DHT22;11557;50.884;4.322;2023-11-21T12:37:17;12.70;99.90
22781;DHT22;11557;50.884;4.322;2023-11-21T12:39:43;12.90;99.90
22781;DHT22;11557;50.884;4.322;2023-11-21T12:42:09;12.80;99.90
22781;DHT22;11557;50.884;4.322;2023-11-21T12:44:36;12.70;99.90
22781;DHT22;11557;50.884;4.322;2023-11-21T12:47:03;12.80;99.90
22781;DHT22;11557;50.884;4.322;2023-11-21T12:49:29;12.80;99.90
22781;DHT22;11557;50.884;4.322;2023-11-21T12:51:54;12.90;99.90
22781;DHT22;11557;50.884;4.322;2023-11-21T12:54:20;12.80;99.90
22781;DHT22;11557;50.884;4.322;2023-11-21T12:56:46;12.80;99.90
22781;DHT22;11557;50.884;4.322;2023-11-21T12:59:15;12.90;99.90
22781;DHT22;11557;50.884;4.322;2023-11-21T13:01:42;13.00;99.90
22781;DHT22;11557;50.884;4.322;2023-11-21T13:04:08;13.00;99.90
22781;DHT22;11557;50.884;4.322;2023-11-21T13:06:36;13.00;99.90
22781;DHT22;11557;50.884;4.322;2023-11-21T13:09:07;13.20;99.90
22781;DHT22;11557;50.884;4.322;2023-11-21T13:11:36;13.30;99.90
22781;DHT22;11557;50.884;4.322;2023-11-21T13:14:02;13.30;99.90
22781;DHT22;11557;50.884;4.322;2023-11-21T13:16:29;13.20;99.90
22781;DHT22;11557;50.884;4.322;2023-11-21T13:18:55;13.30;99.90
22781;DHT22;11557;50.884;4.322;2023-11-21T13:21:21;13.40;99.90
22781;DHT22;11557;50.884;4.322;2023-11-21T13:23:47;13.40;99.90
22781;DHT22;11557;50.884;4.322;2023-11-21T13:26:15;13.40;99.90
22781;DHT22;11557;50.884;4.322;2023-11-21T13:28:41;13.40;99.90
22781;DHT22;11557;50.884;4.322;2023-11-21T13:31:11;13.10;99.90
22781;DHT22;11557;50.884;4.322;2023-11-21T13:33:49;13.10;99.90
22781;DHT22;11557;50.884;4.322;2023-11-21T13:36:25;13.10;99.90
22781;DHT22;11557;50.884;4.322;2023-11-21T13:38:51;13.10;99.90
22781;DHT22;11557;50.884;4.322;2023-11-21T13:41:20;13.20;99.90
22781;DHT22;11557;50.884;4.322;2023-11-21T13:43:48;13.40;99.90
22781;DHT22;11557;50.884;4.322;2023-11-21T13:46:22;13.40;99.90
22781;DHT22;11557;50.884;4.322;2023-11-21T13:48:50;13.20;99.90
22781;DHT22;11557;50.884;4.322;2023-11-21T13:51:24;13.20;99.90
22781;DHT22;11557;50.884;4.322;2023-11-21T13:54:10;13.10;99.90
22781;DHT22;11557;50.884;4.322;2023-11-21T13:56:36;13.20;99.90
22781;DHT22;11557;50.884;4.322;2023-11-21T13:59:02;13.00;99.90
22781;DHT22;11557;50.884;4.322;2023-11-21T14:01:51;12.80;99.90
22781;DHT22;11557;50.884;4.322;2023-11-21T14:04:21;12.60;99.90
22781;DHT22;11557;50.884;4.322;2023-11-21T14:07:04;12.70;99.90
22781;DHT22;11557;50.884;4.322;2023-11-21T14:09:42;12.90;99.90
22781;DHT22;11557;50.884;4.322;2023-11-21T14:12:11;12.90;99.90
22781;DHT22;11557;50.884;4.322;2023-11-21T14:14:39;13.10;99.90
22781;DHT22;11557;50.884;4.322;2023-11-21T14:17:05;13.00;99.90
22781;DHT22;11557;50.884;4.322;2023-11-21T14:19:32;13.00;99.90
22781;DHT22;11557;50.884;4.322;2023-11-21T14:21:59;13.00;99.90
22781;DHT22;11557;50.884;4.322;2023-11-21T14:24:25;13.10;99.90
22781;DHT22;11557;50.884;4.322;2023-11-21T14:26:51;13.10;99.90
22781;DHT22;11557;50.884;4.322;2023-11-21T14:29:18;13.30;99.90
22781;DHT22;11557;50.884;4.322;2023-11-21T14:31:46;13.30;99.90
22781;DHT22;11557;50.884;4.322;2023-11-21T14:34:12;13.20;99.90
22781;DHT22;11557;50.884;4.322;2023-11-21T14:36:39;13.20;99.90
22781;DHT22;11557;50.884;4.322;2023-11-21T14:39:05;13.20;99.90
22781;DHT22;11557;50.884;4.322;2023-11-21T14:41:41;13.00;99.90
22781;DHT22;11557;50.884;4.322;2023-11-21T14:44:09;12.70;99.90
22781;DHT22;11557;50.884;4.322;2023-11-21T14:46:37;12.70;99.90
22781;DHT22;11557;50.884;4.322;2023-11-21T14:49:05;12.80;99.90
22781;DHT22;11557;50.884;4.322;2023-11-21T14:51:53;12.90;99.90
22781;DHT22;11557;50.884;4.322;2023-11-21T14:54:30;12.90;99.90
22781;DHT22;11557;50.884;4.322;2023-11-21T14:57:04;12.90;99.90
22781;DHT22;11557;50.884;4.322;2023-11-21T14:59:35;12.80;99.90
22781;DHT22;11557;50.884;4.322;2023-11-21T15:02:00;12.70;99.90
22781;DHT22;11557;50.884;4.322;2023-11-21T15:04:41;12.90;99.90
22781;DHT22;11557;50.884;4.322;2023-11-21T15:07:08;13.00;99.90
22781;DHT22;11557;50.884;4.322;2023-11-21T15:09:34;12.90;99.90
22781;DHT22;11557;50.884;4.322;2023-11-21T15:12:00;12.80;99.90
22781;DHT22;11557;50.884;4.322;2023-11-21T15:14:49;12.90;99.90
22781;DHT22;11557;50.884;4.322;2023-11-21T15:17:18;12.90;99.90
22781;DHT22;11557;50.884;4.322;2023-11-21T15:19:52;12.90;99.90
22781;DHT22;11557;50.884;4.322;2023-11-21T15:22:18;12.70;99.90
22781;DHT22;11557;50.884;4.322;2023-11-21T15:24:44;12.70;99.90
22781;DHT22;11557;50.884;4.322;2023-11-21T15:27:12;12.90;99.90
22781;DHT22;11557;50.884;4.322;2023-11-21T15:29:41;12.90;99.90
22781;DHT22;11557;50.884;4.322;2023-11-21T15:32:07;12.80;99.90
22781;DHT22;11557;50.884;4.322;2023-11-21T15:34:34;12.70;99.90
22781;DHT22;11557;50.884;4.322;2023-11-21T15:37:00;12.70;99.90
22781;DHT22;11557;50.884;4.322;2023-11-21T15:39:26;12.60;99.90
22781;DHT22;11557;50.884;4.322;2023-11-21T15:41:59;12.70;99.90